Hovedside
METAR-TAF:

METAR-TAF

Lufthavner :

Gällivare, Sverige

Gällivare lufthavn

breddegrad: 67-09N, lengdegrad: 020-39E, høyde over havet: 359 m

Gjeldene værobservasjon

Denne rapporten ble laget for 15 minutter siden, klokken 04:20 UTC
Vind 5 kt fra Nordøst
Temperatur -1°C
Luftfuktighet 74%
Trykk 1007 hPa
Sikt 10 km eller mer
Overskyet i en høyde av 1900 ft

METAR: ESNG 250420Z 04005KT 9999 OVC019 M01/M05 Q1007

Tid: 06:35 (04:35 UTC)

Varsel

Denne rapporten ble laget for 2 timer og 5 minutter siden, klokken 02:30 UTC
Varsel gyldig fra 25. klokken 03 UTC til 25. klokken 11 UTC
Vind 4 kt fra Nordøst
Sikt 10 km eller mer
Brutte skyer i en høyde av 2000 ft
Sannsynlighet 40%
fra 25. klokken 03 UTC til 25. klokken 11 UTC
Sikt: 2500 m
i en høyde av 700 ft
lett snø

TAF: ESNG 250230Z 2503/2511 04004KT 9999 BKN020 PROB40 2503/2511 2500 -SN VV007

Værobservasjoner og værvarsel for over 4000 flyplasser (METAR- og TAF-rapporter).

Tilgjengelige stasjoner er representert av de røde og gule prikkene på kartet.

Hold musepekeren over prikken for å se navnet på stasjonen.

Klikk så for å se værobservasjoner og -varsler.

For å forandre kartet kan du klikke på den grønne knappen med svart kryss for å zoome inn, på den grønne knappen med strek for å zoome ut, eller på de grønne pilene for å se tilstøtende kart.


METAR-TAF: